Ainsworth, NE

12:45 AM CDT on August 21, 2017 (GMT -0500)
Ainsworth Municipal

Weather History for KANW - October, 2013

Change the Weather History Date:

Sunday, October 27, 2013

  Actual Average Record
Temperature  
Mean Temperature 54 °F -  
Max Temperature 70 °F 53 °F 80 °F (2016)
Min Temperature 37 °F 32 °F 17 °F (1997)
Degree Days  
Heating Degree Days 12    
Growing Degree Days 4 (Base 50)    
Moisture  
Dew Point 33 °F    
Average Humidity 52    
Maximum Humidity 79    
Minimum Humidity 24    
Precipitation  
Precipitation 0.00 in - - ()
Sea Level Pressure  
Sea Level Pressure 29.90 in    
Wind  
Wind Speed 9 mph (ESE)    
Max Wind Speed 16 mph    
Max Gust Speed 24 mph    
Visibility 9 miles    
Events      
Averages and records for this station are not official NWS values.
T = Trace of Precipitation, MM = Missing Value Source: NWS Daily Summary

Daily Weather History Graph

Daily Weather History Graph

Search for Another Location

Airport or City:

Trip Planner

Search our weather history database for the weather conditions in past years. The results will help you decide how hot, cold, wet, or windy it might be!

Date:

Astronomy

Oct. 27, 2013 Rise Set
Actual Time 8:07 AM CDT 6:39 PM CDT
Civil Twilight 7:38 AM CDT 7:08 PM CDT
Nautical Twilight 7:05 AM CDT 7:41 PM CDT
Astronomical Twilight 6:33 AM CDT 8:13 PM CDT
Moon 12:58 AM CDT (10/27) 2:57 PM CDT (10/27)
Length of Visible Light 11h 29m
Length of Day
10h 31m
Last Quarter, 43% of the Moon is Illuminated
Oct 27
Last Quarter
Nov 3
New
Nov 9
First Quarter
Nov 17
Full
Nov 25
Last Quarter

Hourly Weather History & Observations

Time (CDT) Temp. Windchill Dew Point Humidity Pressure Visibility Wind Dir Wind Speed Gust Speed Precip Events Conditions
12:15 AM 40.5 °F 34.1 °F 24.1 °F 52% 30.05 in 10.0 mi SSW 10.4 mph - N/A   Clear
12:35 AM 41.7 °F 35.6 °F 23.2 °F 48% 30.03 in 10.0 mi SSW 10.4 mph - N/A   Clear
12:55 AM 42.3 °F 36.8 °F 22.3 °F 45% 30.02 in 10.0 mi South 9.2 mph - N/A   Clear
1:15 AM 41.4 °F 36.2 °F 22.1 °F 46% 30.01 in 10.0 mi South 8.1 mph - N/A   Clear
1:35 AM 40.8 °F 35.6 °F 22.8 °F 49% 30.00 in 10.0 mi South 8.1 mph - N/A   Clear
1:55 AM 37.6 °F 31.6 °F 24.6 °F 60% 29.98 in 10.0 mi South 8.1 mph - N/A   Clear
2:15 AM 42.1 °F 35.7 °F 25.7 °F 52% 29.97 in 10.0 mi SSW 11.5 mph - N/A   Clear
2:35 AM 41.2 °F 34.5 °F 26.4 °F 56% 29.97 in 10.0 mi SSW 11.5 mph - N/A   Clear
2:55 AM 41.4 °F 35.2 °F 27.3 °F 57% 29.95 in 10.0 mi SSW 10.4 mph - N/A   Clear
3:15 AM 42.3 °F 35.9 °F 28.8 °F 59% 29.94 in 10.0 mi SSW 11.5 mph - N/A   Clear
3:35 AM 42.4 °F 35.7 °F 29.1 °F 59% 29.93 in 10.0 mi SSW 12.7 mph - N/A   Clear
3:55 AM 41.2 °F 35.0 °F 29.3 °F 63% 29.92 in 10.0 mi SSW 10.4 mph - N/A   Clear
4:15 AM 41.5 °F 35.4 °F 29.8 °F 63% 29.91 in 10.0 mi SW 10.4 mph - N/A   Clear
4:35 AM 41.7 °F 36.1 °F 30.2 °F 64% 29.90 in 10.0 mi SW 9.2 mph - N/A   Clear
4:55 AM 41.0 °F 34.7 °F 30.6 °F 66% 29.90 in 10.0 mi SW 10.4 mph - N/A   Clear
5:15 AM 40.6 °F 34.8 °F 31.1 °F 69% 29.89 in 10.0 mi SW 9.2 mph - N/A   Clear
5:35 AM 39.7 °F 35.6 °F 31.1 °F 71% 29.89 in 10.0 mi WSW 5.8 mph - N/A   Clear
5:55 AM 39.6 °F 34.7 °F 32.0 °F 74% 29.89 in 10.0 mi WSW 6.9 mph - N/A   Clear
6:15 AM 39.7 °F 36.5 °F 32.0 °F 74% 29.89 in 10.0 mi WSW 4.6 mph - N/A   Clear
6:35 AM 39.7 °F 35.6 °F 32.0 °F 74% 29.88 in 10.0 mi WSW 5.8 mph - N/A   Clear
6:55 AM 37.8 °F 33.3 °F 31.6 °F 79% 29.88 in 10.0 mi SW 5.8 mph - N/A   Clear
7:15 AM 38.1 °F 32.9 °F 32.0 °F 79% 29.87 in 10.0 mi SW 6.9 mph - N/A   Clear
7:35 AM 39.2 °F 34.2 °F 32.2 °F 76% 29.87 in 10.0 mi WSW 6.9 mph - N/A   Clear
7:55 AM 39.4 °F 34.5 °F 32.4 °F 76% 29.87 in 10.0 mi WSW 6.9 mph - N/A   Clear
8:15 AM 39.7 °F 34.9 °F 32.5 °F 75% 29.86 in 10.0 mi WSW 6.9 mph - N/A   Clear
8:35 AM 40.1 °F 36.9 °F 32.9 °F 75% 29.86 in 10.0 mi WSW 4.6 mph - N/A   Clear
8:55 AM 42.1 °F 37.7 °F 34.2 °F 74% 29.87 in 10.0 mi WSW 6.9 mph - N/A   Clear
9:15 AM 44.4 °F 42.0 °F 35.2 °F 70% 29.87 in 10.0 mi West 4.6 mph - N/A   Clear
9:35 AM 47.7 °F - 36.5 °F 65% 29.87 in 10.0 mi WSW 6.9 mph - N/A   Clear
9:55 AM 50.9 °F - 36.5 °F 58% 29.87 in 10.0 mi West 9.2 mph - N/A   Clear
10:15 AM 52.5 °F - 36.7 °F 55% 29.87 in 10.0 mi West 10.4 mph - N/A   Clear
10:35 AM 54.9 °F - 36.9 °F 51% 29.87 in 10.0 mi West 9.2 mph - N/A   Clear
10:55 AM 57.2 °F - 37.6 °F 48% 29.87 in 10.0 mi West 8.1 mph - N/A   Clear
11:15 AM 59.4 °F - 36.9 °F 43% 29.87 in 10.0 mi WNW 5.8 mph - N/A   Clear
11:35 AM 61.7 °F - 36.3 °F 39% 29.87 in 10.0 mi WNW 4.6 mph - N/A   Clear
11:55 AM 64.4 °F - 36.3 °F 35% 29.87 in 10.0 mi Calm Calm - N/A   Clear
12:15 PM 65.7 °F - 34.7 °F 32% 29.86 in 10.0 mi Calm Calm - N/A   Clear
12:35 PM 68.2 °F - 34.5 °F 29% 29.86 in 10.0 mi NNE 4.6 mph - N/A   Clear
12:55 PM 68.2 °F - 32.9 °F 27% 29.85 in 10.0 mi NNE 4.6 mph - N/A   Clear
1:15 PM 68.2 °F - 32.2 °F 26% 29.84 in 10.0 mi NNE 3.5 mph - N/A   Clear
1:35 PM 68.7 °F - 32.2 °F 26% 29.83 in 10.0 mi Calm Calm - N/A   Clear
1:55 PM 69.3 °F - 32.2 °F 25% 29.83 in 10.0 mi Calm Calm - N/A   Clear
2:15 PM 69.8 °F - 32.5 °F 25% 29.82 in 2.0 mi NNE 3.5 mph - N/A   Haze
2:35 PM 70.2 °F - 32.2 °F 25% 29.82 in 10.0 mi East 3.5 mph - N/A   Clear
2:55 PM 69.8 °F - 31.5 °F 24% 29.81 in 10.0 mi Calm Calm - N/A   Clear
3:15 PM 70.3 °F - 32.5 °F 25% 29.81 in 7.0 mi NE 4.6 mph - N/A   Clear
3:35 PM 70.2 °F - 32.5 °F 25% 29.81 in 7.0 mi ENE 5.8 mph - N/A   Clear
3:55 PM 70.2 °F - 32.0 °F 24% 29.82 in 7.0 mi ENE 4.6 mph - N/A   Clear
4:15 PM 70.3 °F - 32.7 °F 25% 29.82 in 7.0 mi ENE 3.5 mph - N/A   Clear
4:35 PM 70.0 °F - 33.1 °F 26% 29.82 in 5.0 mi ENE 6.9 mph - N/A   Haze
4:55 PM 69.4 °F - 33.1 °F 26% 29.83 in 2.0 mi ENE 9.2 mph - N/A   Haze
5:15 PM 68.9 °F - 32.7 °F 26% 29.83 in 7.0 mi NE 9.2 mph - N/A   Clear
5:35 PM 67.5 °F - 33.8 °F 29% 29.83 in 10.0 mi ENE 8.1 mph - N/A   Clear
5:55 PM 65.5 °F - 35.1 °F 32% 29.83 in 3.0 mi ENE 6.9 mph - N/A   Haze
6:15 PM 62.1 °F - 36.1 °F 38% 29.84 in 4.0 mi ENE 8.1 mph - N/A   Haze
6:35 PM 57.9 °F - 36.0 °F 44% 29.85 in 4.0 mi NE 9.2 mph - N/A   Haze
6:55 PM 56.5 °F - 36.1 °F 47% 29.87 in 4.0 mi ENE 11.5 mph - N/A   Haze
7:15 PM 54.7 °F - 36.3 °F 50% 29.87 in 4.0 mi ENE 11.5 mph - N/A   Haze
7:35 PM 54.1 °F - 35.8 °F 50% 29.89 in 4.0 mi ENE 9.2 mph - N/A   Haze
7:55 PM 51.8 °F - 36.1 °F 55% 29.90 in 3.0 mi ENE 9.2 mph - N/A   Haze
8:15 PM 52.5 °F - 37.6 °F 57% 29.91 in 10.0 mi ENE 15.0 mph 24.2 mph N/A   Clear
8:35 PM 50.4 °F - 37.4 °F 61% 29.92 in 10.0 mi ENE 13.8 mph - N/A   Clear
8:55 PM 48.9 °F - 36.7 °F 63% 29.94 in 10.0 mi ENE 15.0 mph 21.9 mph N/A   Clear
9:15 PM 47.7 °F - 36.1 °F 64% 29.95 in 10.0 mi NE 15.0 mph 23.0 mph N/A   Clear
9:35 PM 46.2 °F 40.1 °F 36.0 °F 67% 29.96 in 10.0 mi NE 13.8 mph - N/A   Clear
9:55 PM 45.5 °F 39.2 °F 35.6 °F 68% 29.97 in 10.0 mi NE 13.8 mph 18.4 mph N/A   Clear
10:15 PM 45.0 °F 38.5 °F 35.6 °F 70% 29.98 in 10.0 mi NE 13.8 mph - N/A   Clear
10:35 PM 44.1 °F 37.1 °F 35.2 °F 71% 29.99 in 10.0 mi ENE 15.0 mph 21.9 mph N/A   Clear
10:55 PM 43.7 °F 37.3 °F 35.1 °F 72% 30.01 in 10.0 mi ENE 12.7 mph 19.6 mph N/A   Clear
11:15 PM 42.8 °F 35.8 °F 34.3 °F 72% 30.02 in 10.0 mi ENE 13.8 mph - N/A   Clear
11:35 PM 42.1 °F 35.2 °F 34.0 °F 73% 30.03 in 10.0 mi NE 12.7 mph - N/A   Clear
11:55 PM 41.2 °F 33.0 °F 33.8 °F 75% 30.03 in 10.0 mi NE 16.1 mph 20.7 mph N/A   Clear